Time;durP1;ratioP1;P1;durP2;ratioP2;P2;SDS_P1;SDS_P2;PMS_P1;PMS_P2;Temp;Humidity;BMP_temperature;BMP_pressure;BME280_temperature;BME280_humidity;BME280_pressure;Samples;Min_cycle;Max_cycle;Signal;HPM_P1;HPM_P2
2021/12/28 00:00:20;;;;;;;34.80;22.13;;;;;;;9.77;32.15;98593.75;4480713;32;34685;-82
2021/12/28 00:02:49;;;;;;;36.30;22.30;;;;;;;9.98;32.12;98596.47;4481649;32;33988;-82
2021/12/28 00:05:18;;;;;;;33.25;21.67;;;;;;;9.69;32.67;98599.72;4481180;32;34053;-82
2021/12/28 00:07:45;;;;;;;31.05;20.48;;;;;;;9.65;32.75;98595.38;4481905;32;33190;-85
2021/12/28 00:10:15;;;;;;;32.90;20.02;;;;;;;9.44;32.87;98590.94;4481336;31;34282;-82
2021/12/28 00:12:43;;;;;;;29.45;19.58;;;;;;;9.41;32.59;98584.88;4479359;32;33559;-83
2021/12/28 00:18:04;;;;;;;32.47;21.75;;;;;;;9.13;33.66;98579.47;4481925;32;34604;-82
2021/12/28 00:20:41;;;;;;;29.70;19.50;;;;;;;9.23;34.29;98578.66;4481248;32;33210;-83
2021/12/28 00:23:13;;;;;;;32.00;19.80;;;;;;;9.60;33.57;98589.31;4482250;32;33917;-80
2021/12/28 00:25:41;;;;;;;33.65;20.85;;;;;;;9.64;33.39;98588.50;4480996;32;34119;-81
2021/12/28 00:28:09;;;;;;;31.55;19.95;;;;;;;9.39;34.02;98589.16;4482938;32;34597;-81
2021/12/28 00:30:36;;;;;;;30.75;19.48;;;;;;;9.80;32.87;98586.00;4478833;32;33545;-80
2021/12/28 00:33:05;;;;;;;30.42;19.40;;;;;;;9.40;33.85;98585.72;4479947;32;33823;-81
2021/12/28 00:35:35;;;;;;;28.95;19.20;;;;;;;10.35;32.64;98581.16;4482321;32;33918;-81
2021/12/28 00:38:04;;;;;;;31.48;19.87;;;;;;;9.55;33.64;98588.44;4483030;32;34815;-81
2021/12/28 00:40:32;;;;;;;33.22;18.23;;;;;;;9.51;33.57;98591.84;4482133;32;33638;-81
2021/12/28 00:43:00;;;;;;;31.87;18.83;;;;;;;9.16;35.08;98596.72;4481921;32;33538;-83
2021/12/28 00:45:28;;;;;;;30.92;19.70;;;;;;;8.87;35.84;98599.03;4481391;32;35276;-84
2021/12/28 00:47:55;;;;;;;28.10;18.48;;;;;;;9.26;35.36;98604.56;4481730;32;34233;-83
2021/12/28 00:50:24;;;;;;;30.62;18.27;;;;;;;9.70;34.63;98601.47;4482444;32;33900;-81
2021/12/28 00:52:52;;;;;;;32.60;19.37;;;;;;;9.37;34.76;98598.63;4482861;32;33825;-80
2021/12/28 00:55:19;;;;;;;29.48;18.40;;;;;;;9.65;34.41;98597.97;4482222;32;34054;-80
2021/12/28 00:57:48;;;;;;;27.75;17.67;;;;;;;9.48;35.08;98600.44;4482703;32;33922;-82
2021/12/28 01:00:27;;;;;;;31.15;17.75;;;;;;;8.45;36.85;98600.28;4481149;32;32830;-82
2021/12/28 01:02:59;;;;;;;32.28;17.87;;;;;;;9.06;36.20;98595.78;4477592;32;34642;-82
2021/12/28 01:05:27;;;;;;;26.75;17.62;;;;;;;7.12;40.63;98600.84;4480268;32;34216;-81
2021/12/28 01:07:55;;;;;;;27.75;16.73;;;;;;;8.29;38.59;98592.28;4480904;32;33515;-81
2021/12/28 01:10:27;;;;;;;28.90;15.38;;;;;;;7.95;40.69;98603.00;4481794;32;33102;-83
2021/12/28 01:12:55;;;;;;;25.60;16.30;;;;;;;8.59;39.20;98597.84;4480387;32;33805;-81
2021/12/28 01:15:24;;;;;;;29.27;16.27;;;;;;;8.43;39.69;98591.63;4481063;32;34951;-80
2021/12/28 01:17:52;;;;;;;27.00;16.87;;;;;;;8.89;38.88;98586.97;4477540;32;33511;-80
2021/12/28 01:20:20;;;;;;;29.98;17.12;;;;;;;8.41;39.37;98577.81;4481679;32;33113;-82
2021/12/28 01:22:48;;;;;;;31.20;17.75;;;;;;;7.29;42.30;98586.53;4470766;32;33612;-83
2021/12/28 01:25:18;;;;;;;30.33;17.70;;;;;;;8.35;39.70;98568.25;4465842;32;34051;-82
2021/12/28 01:27:46;;;;;;;25.20;16.37;;;;;;;8.35;39.85;98570.00;4466772;32;33465;-82
2021/12/28 01:30:17;;;;;;;29.87;16.77;;;;;;;7.91;40.67;98576.28;4477460;32;33206;-81
2021/12/28 01:32:45;;;;;;;27.45;17.75;;;;;;;7.06;43.08;98581.00;4466623;32;34925;-83
2021/12/28 01:35:14;;;;;;;31.65;16.98;;;;;;;7.50;42.18;98575.69;4476451;32;34069;-81
2021/12/28 01:37:42;;;;;;;29.25;17.02;;;;;;;7.80;42.21;98571.00;4468063;32;34193;-81
2021/12/28 01:40:15;;;;;;;34.40;18.77;;;;;;;8.46;40.70;98566.72;4480571;32;34631;-81
2021/12/28 01:43:10;;;;;;;31.73;19.02;;;;;;;8.15;40.98;98567.16;4481881;32;33640;-82
2021/12/28 01:45:52;;;;;;;31.52;17.80;;;;;;;8.77;39.75;98565.31;4482166;32;33908;-82
2021/12/28 01:48:30;;;;;;;27.73;16.58;;;;;;;8.85;39.63;98565.41;4480599;32;34849;-81
2021/12/28 01:51:05;;;;;;;28.30;17.87;;;;;;;8.05;41.38;98566.16;4480397;32;33514;-80
2021/12/28 01:53:33;;;;;;;34.78;18.10;;;;;;;7.64;42.74;98570.75;4480287;32;35254;-83
2021/12/28 01:56:06;;;;;;;33.42;17.73;;;;;;;7.69;42.66;98562.25;4481506;32;34920;-82
2021/12/28 01:58:34;;;;;;;28.50;18.10;;;;;;;8.85;40.27;98556.78;4480797;32;34493;-81
2021/12/28 02:01:02;;;;;;;28.77;16.83;;;;;;;9.25;39.43;98556.28;4480575;32;34447;-82
2021/12/28 02:03:32;;;;;;;28.42;16.80;;;;;;;9.07;39.91;98563.88;4481358;32;34717;-81
2021/12/28 02:06:00;;;;;;;29.00;17.60;;;;;;;6.24;46.32;98565.72;4467511;32;33932;-81
2021/12/28 02:08:27;;;;;;;32.60;19.45;;;;;;;5.15;49.31;98567.53;4479624;32;33963;-81
2021/12/28 02:10:56;;;;;;;35.95;20.05;;;;;;;5.60;48.72;98554.03;4481799;32;32928;-83
2021/12/28 02:13:24;;;;;;;37.08;18.12;;;;;;;5.54;49.34;98559.06;4482172;32;33877;-84
2021/12/28 02:15:53;;;;;;;33.47;18.50;;;;;;;5.86;48.81;98552.91;4483965;32;34850;-81
2021/12/28 02:18:22;;;;;;;35.67;18.75;;;;;;;5.74;49.45;98547.50;4481920;32;33923;-82
2021/12/28 02:20:50;;;;;;;37.20;19.33;;;;;;;5.67;48.83;98545.63;4478268;32;33507;-81
2021/12/28 02:23:18;;;;;;;38.97;21.35;;;;;;;5.30;50.69;98539.66;4482311;32;34607;-83
2021/12/28 02:25:46;;;;;;;42.28;21.75;;;;;;;6.47;48.32;98537.00;4482505;32;34352;-81
2021/12/28 02:28:14;;;;;;;39.83;20.62;;;;;;;7.14;46.67;98545.91;4481520;32;33974;-83
2021/12/28 02:30:46;;;;;;;40.22;21.17;;;;;;;7.44;46.18;98545.53;4482953;32;33367;-83
2021/12/28 02:33:14;;;;;;;34.42;20.17;;;;;;;7.28;46.60;98551.31;4482414;32;33527;-82
2021/12/28 02:35:42;;;;;;;38.42;19.73;;;;;;;6.31;49.00;98547.00;4481230;32;33778;-85
2021/12/28 02:38:10;;;;;;;36.22;20.23;;;;;;;6.21;48.78;98547.66;4481423;32;33886;-83
2021/12/28 02:40:40;;;;;;;36.72;20.52;;;;;;;7.06;45.65;98550.94;4481949;32;33015;-83
2021/12/28 02:43:09;;;;;;;33.58;20.05;;;;;;;6.34;48.18;98551.34;4483067;32;34729;-81
2021/12/28 02:45:40;;;;;;;38.28;21.48;;;;;;;6.14;48.40;98553.53;4479666;32;34227;-81
2021/12/28 02:48:08;;;;;;;32.22;20.55;;;;;;;5.93;49.15;98553.06;4481364;32;33754;-82
2021/12/28 02:50:42;;;;;;;32.92;19.92;;;;;;;6.39;47.68;98548.84;4483295;32;33579;-83
2021/12/28 02:53:11;;;;;;;37.13;20.83;;;;;;;6.50;47.40;98557.66;4482829;32;33828;-83
2021/12/28 02:55:39;;;;;;;39.55;22.52;;;;;;;6.40;47.08;98548.00;4483892;32;35009;-82
2021/12/28 02:58:13;;;;;;;41.67;21.83;;;;;;;5.46;49.86;98540.00;4481617;32;34622;-81
2021/12/28 03:00:44;;;;;;;39.55;20.80;;;;;;;7.29;45.68;98543.56;4482961;32;34084;-83
2021/12/28 03:03:15;;;;;;;38.80;21.35;;;;;;;7.61;44.54;98542.31;4467933;32;33672;-83
2021/12/28 03:05:45;;;;;;;36.13;21.35;;;;;;;6.79;46.22;98538.44;4473095;32;34245;-83
2021/12/28 03:08:14;;;;;;;35.88;22.62;;;;;;;7.07;45.37;98541.50;4480864;32;34007;-82
2021/12/28 03:10:43;;;;;;;38.67;22.85;;;;;;;6.43;47.30;98530.91;4482645;32;33443;-83
2021/12/28 03:13:18;;;;;;;46.97;22.80;;;;;;;5.26;51.03;98540.38;4482467;32;34688;-83
2021/12/28 03:15:46;;;;;;;40.63;22.17;;;;;;;5.11;51.58;98540.03;4482441;32;33527;-84
2021/12/28 03:18:13;;;;;;;42.38;23.25;;;;;;;5.68;50.23;98538.75;4482550;32;34244;-83
2021/12/28 03:20:41;;;;;;;40.55;22.80;;;;;;;6.47;47.97;98532.69;4483347;32;33615;-83
2021/12/28 03:23:09;;;;;;;59.63;23.77;;;;;;;7.31;46.11;98535.84;4482038;32;33479;-84
2021/12/28 03:25:37;;;;;;;42.90;24.73;;;;;;;7.77;45.32;98541.72;4481845;32;34199;-83
2021/12/28 03:28:04;;;;;;;42.42;24.35;;;;;;;7.37;45.72;98543.69;4483002;32;34642;-84
2021/12/28 03:30:32;;;;;;;39.72;23.60;;;;;;;6.50;47.99;98547.34;4482939;32;33863;-83
2021/12/28 03:32:59;;;;;;;39.22;22.23;;;;;;;5.44;50.55;98546.81;4482988;32;34369;-83
2021/12/28 03:35:27;;;;;;;41.33;22.23;;;;;;;5.94;49.00;98545.37;4483047;32;34036;-83
2021/12/28 03:37:54;;;;;;;42.08;23.30;;;;;;;5.26;51.57;98550.66;4481713;32;34353;-84
2021/12/28 03:40:22;;;;;;;36.28;20.25;;;;;;;6.31;48.62;98540.97;4482208;32;33709;-84
2021/12/28 03:42:49;;;;;;;37.03;20.73;;;;;;;6.45;48.58;98543.84;4482399;32;33775;-83
2021/12/28 03:45:16;;;;;;;38.40;21.45;;;;;;;7.64;45.49;98539.78;4482852;32;35060;-84
2021/12/28 03:47:44;;;;;;;42.05;20.62;;;;;;;6.49;47.38;98540.47;4483312;32;33598;-83
2021/12/28 03:50:12;;;;;;;42.10;21.75;;;;;;;6.88;47.39;98544.59;4482235;31;33255;-83
2021/12/28 03:52:40;;;;;;;41.20;23.33;;;;;;;6.39;48.79;98549.72;4483082;32;34657;-82
2021/12/28 03:55:09;;;;;;;44.03;23.15;;;;;;;6.69;48.36;98544.28;4482320;32;34081;-81
2021/12/28 03:57:39;;;;;;;48.20;21.75;;;;;;;7.15;47.06;98555.38;4483414;32;33676;-84
2021/12/28 04:00:09;;;;;;;44.53;22.58;;;;;;;7.39;46.15;98546.31;4481510;32;34281;-81
2021/12/28 04:02:37;;;;;;;42.85;22.83;;;;;;;6.19;49.26;98545.91;4481837;32;33625;-84
2021/12/28 04:05:04;;;;;;;42.17;21.95;;;;;;;7.52;46.17;98550.81;4482539;32;33787;-83
2021/12/28 04:07:32;;;;;;;46.83;24.95;;;;;;;8.19;44.87;98545.69;4482741;32;34753;-83
2021/12/28 04:10:03;;;;;;;45.22;24.08;;;;;;;8.33;44.48;98546.69;4482604;32;33860;-83
2021/12/28 04:12:31;;;;;;;51.20;25.73;;;;;;;8.21;45.12;98534.50;4481553;32;34062;-82
2021/12/28 04:14:59;;;;;;;50.65;28.30;;;;;;;8.02;45.32;98543.75;4476154;32;33903;-83
2021/12/28 04:17:28;;;;;;;52.78;28.00;;;;;;;7.87;46.18;98550.44;4481418;32;34073;-83
2021/12/28 04:19:57;;;;;;;61.22;26.95;;;;;;;5.76;51.87;98556.12;4481686;32;34285;-83
2021/12/28 04:22:24;;;;;;;52.03;27.42;;;;;;;7.04;49.32;98554.31;4482792;32;34404;-82
2021/12/28 04:24:54;;;;;;;58.13;28.15;;;;;;;5.97;52.05;98555.72;4481758;32;34053;-83
2021/12/28 04:27:22;;;;;;;61.42;27.45;;;;;;;5.90;52.85;98558.97;4481858;32;33779;-83
2021/12/28 04:29:50;;;;;;;63.83;26.42;;;;;;;5.30;54.30;98554.19;4482816;32;33666;-83
2021/12/28 04:32:17;;;;;;;57.28;26.37;;;;;;;5.15;55.13;98551.25;4481582;32;33726;-83
2021/12/28 04:34:50;;;;;;;61.03;26.95;;;;;;;5.57;53.83;98559.13;4466882;32;34891;-82
2021/12/28 04:37:19;;;;;;;61.42;28.25;;;;;;;5.60;54.11;98556.59;4475849;32;34774;-82
2021/12/28 04:39:46;;;;;;;54.97;26.37;;;;;;;6.44;52.09;98557.53;4482623;32;33470;-82
2021/12/28 04:42:14;;;;;;;56.00;24.70;;;;;;;6.12;52.38;98555.19;4481863;32;33959;-81
2021/12/28 04:44:42;;;;;;;104.45;29.55;;;;;;;7.06;50.14;98550.06;4482544;32;34283;-83
2021/12/28 04:47:09;;;;;;;59.40;27.55;;;;;;;5.33;54.27;98547.41;4482536;32;34697;-82
2021/12/28 04:49:36;;;;;;;117.62;30.00;;;;;;;6.64;51.46;98543.34;4482996;32;34628;-83
2021/12/28 04:52:05;;;;;;;110.28;29.55;;;;;;;5.17;55.25;98545.31;4482013;32;35368;-83
2021/12/28 04:54:32;;;;;;;72.32;28.55;;;;;;;6.08;52.31;98548.25;4482100;32;35146;-82
2021/12/28 04:57:00;;;;;;;70.18;25.52;;;;;;;6.48;51.69;98539.59;4482714;32;34868;-83
2021/12/28 04:59:27;;;;;;;63.47;22.48;;;;;;;6.90;50.54;98537.78;4482667;32;34527;-83
2021/12/28 05:01:55;;;;;;;60.08;19.40;;;;;;;5.55;54.01;98529.91;4482045;32;33083;-83
2021/12/28 05:04:22;;;;;;;74.87;18.70;;;;;;;5.42;54.78;98541.66;4482734;32;33871;-84
2021/12/28 05:06:52;;;;;;;60.35;16.92;;;;;;;5.93;53.51;98540.22;4480107;32;33913;-82
2021/12/28 05:09:20;;;;;;;30.30;16.75;;;;;;;6.66;51.77;98539.06;4480601;32;33549;-81
2021/12/28 05:11:48;;;;;;;34.58;16.25;;;;;;;7.61;49.46;98540.59;4481409;32;33637;-83
2021/12/28 05:14:18;;;;;;;53.47;14.85;;;;;;;8.48;47.33;98528.81;4481803;32;34632;-83
2021/12/28 05:16:45;;;;;;;52.25;14.48;;;;;;;7.06;49.61;98544.91;4481392;32;33832;-83
2021/12/28 05:19:14;;;;;;;44.92;14.30;;;;;;;7.01;50.27;98549.16;4482214;32;33969;-81
2021/12/28 05:21:43;;;;;;;71.43;13.07;;;;;;;6.56;51.53;98542.34;4480146;32;33461;-84
2021/12/28 05:24:10;;;;;;;48.35;13.23;;;;;;;5.45;53.99;98551.97;4481474;32;34162;-82
2021/12/28 05:26:38;;;;;;;81.72;14.57;;;;;;;5.90;53.63;98547.81;4480583;32;33629;-83
2021/12/28 05:29:06;;;;;;;44.55;12.18;;;;;;;5.40;54.34;98555.28;4482241;32;33397;-83
2021/12/28 05:31:33;;;;;;;63.05;13.07;;;;;;;5.51;54.34;98553.81;4481286;32;33656;-83
2021/12/28 05:34:01;;;;;;;71.10;15.07;;;;;;;5.33;55.26;98561.97;4481724;32;34075;-83
2021/12/28 05:36:29;;;;;;;81.78;13.70;;;;;;;4.99;55.14;98568.00;4481879;32;34293;-83
2021/12/28 05:38:56;;;;;;;73.97;14.52;;;;;;;5.96;53.31;98564.28;4481861;32;32761;-83
2021/12/28 05:41:24;;;;;;;64.00;13.23;;;;;;;5.11;56.46;98560.56;4480557;32;34069;-83
2021/12/28 05:43:51;;;;;;;83.22;14.50;;;;;;;6.03;53.79;98563.59;4481639;32;34299;-81
2021/12/28 05:46:19;;;;;;;105.25;15.25;;;;;;;4.28;58.10;98565.25;4482530;32;33695;-83
2021/12/28 05:48:47;;;;;;;107.82;15.95;;;;;;;5.25;56.13;98561.78;4483719;32;33938;-83
2021/12/28 05:51:15;;;;;;;101.35;17.02;;;;;;;3.94;59.50;98576.22;4483624;31;34786;-83
2021/12/28 05:53:43;;;;;;;45.78;16.75;;;;;;;3.76;60.32;98584.28;4483404;32;34977;-83
2021/12/28 05:56:10;;;;;;;42.35;13.75;;;;;;;4.43;58.90;98586.19;4483429;32;33584;-82
2021/12/28 05:58:38;;;;;;;39.75;13.70;;;;;;;4.30;58.68;98569.59;4484148;32;34138;-83
2021/12/28 06:01:05;;;;;;;60.15;13.43;;;;;;;5.90;54.79;98570.97;4483217;32;33420;-83
2021/12/28 06:03:34;;;;;;;75.05;14.27;;;;;;;4.45;58.43;98578.56;4483487;32;33865;-83
2021/12/28 06:06:01;;;;;;;103.22;15.32;;;;;;;4.58;58.23;98584.06;4469698;32;33953;-83
2021/12/28 06:08:29;;;;;;;50.47;13.93;;;;;;;4.07;60.29;98588.59;4483596;32;33180;-82
2021/12/28 06:11:00;;;;;;;77.37;16.70;;;;;;;4.62;58.24;98583.34;4483713;32;34364;-84
2021/12/28 06:13:27;;;;;;;75.43;13.52;;;;;;;5.32;56.02;98589.38;4483130;32;34070;-83
2021/12/28 06:15:56;;;;;;;25.15;11.57;;;;;;;5.56;55.32;98586.50;4483423;32;34073;-84
2021/12/28 06:18:24;;;;;;;91.70;15.52;;;;;;;6.76;52.27;98586.47;4483840;32;33606;-84
2021/12/28 06:20:52;;;;;;;188.25;21.90;;;;;;;4.91;56.28;98585.78;4483837;32;34036;-83
2021/12/28 06:23:19;;;;;;;139.52;21.45;;;;;;;5.46;54.75;98581.16;4483537;32;34045;-84
2021/12/28 06:25:47;;;;;;;73.65;17.12;;;;;;;5.19;56.50;98586.47;4482677;32;34049;-83
2021/12/28 06:28:14;;;;;;;80.12;14.45;;;;;;;6.27;53.41;98580.38;4483943;32;32928;-82
2021/12/28 06:30:41;;;;;;;62.62;13.35;;;;;;;5.75;54.88;98581.78;4483622;32;34699;-83
2021/12/28 06:33:09;;;;;;;62.22;15.27;;;;;;;5.68;54.10;98585.06;4482991;32;34907;-84
2021/12/28 06:35:37;;;;;;;60.05;15.77;;;;;;;6.40;52.35;98579.75;4483489;32;33666;-83
2021/12/28 06:38:04;;;;;;;51.30;14.45;;;;;;;5.92;54.01;98583.06;4483821;32;33864;-84
2021/12/28 06:40:32;;;;;;;68.70;14.90;;;;;;;5.76;54.30;98591.28;4483047;32;33975;-82
2021/12/28 06:42:59;;;;;;;42.75;13.73;;;;;;;6.06;53.78;98591.97;4483182;32;35028;-84
2021/12/28 06:45:27;;;;;;;49.05;14.00;;;;;;;6.51;51.96;98590.28;4482949;32;33887;-82
2021/12/28 06:47:55;;;;;;;71.05;12.90;;;;;;;6.52;51.69;98586.88;4483308;32;34479;-83
2021/12/28 06:50:22;;;;;;;61.70;13.55;;;;;;;4.58;57.54;98606.28;4482856;31;33389;-83
2021/12/28 06:52:49;;;;;;;54.03;14.27;;;;;;;4.27;58.96;98605.44;4483019;32;34860;-83
2021/12/28 06:55:17;;;;;;;59.58;12.07;;;;;;;3.94;60.71;98599.31;4482561;32;33825;-83
2021/12/28 06:57:44;;;;;;;30.17;10.90;;;;;;;4.29;58.40;98608.06;4483558;32;33529;-82
2021/12/28 07:00:14;;;;;;;27.77;11.25;;;;;;;5.10;56.36;98600.81;4482720;32;34490;-81
2021/12/28 07:02:43;;;;;;;42.90;11.95;;;;;;;5.00;57.47;98605.69;4476285;32;35278;-83
2021/12/28 07:05:11;;;;;;;27.37;10.38;;;;;;;4.84;57.59;98609.56;4483098;32;33731;-82
2021/12/28 07:07:39;;;;;;;60.55;14.20;;;;;;;5.15;56.50;98608.63;4482209;32;33249;-82
2021/12/28 07:10:08;;;;;;;47.30;13.65;;;;;;;3.98;59.73;98621.66;4483165;32;33885;-83
2021/12/28 07:12:35;;;;;;;28.67;13.27;;;;;;;4.23;59.65;98624.13;4481641;32;34887;-83
2021/12/28 07:15:03;;;;;;;23.58;12.15;;;;;;;5.59;55.91;98622.59;4483119;32;33103;-83
2021/12/28 07:17:31;;;;;;;32.10;12.35;;;;;;;6.06;54.19;98622.84;4483008;32;34439;-83
2021/12/28 07:19:58;;;;;;;66.22;13.70;;;;;;;6.09;53.84;98617.75;4482599;32;34792;-83
2021/12/28 07:22:26;;;;;;;48.35;13.02;;;;;;;4.59;57.36;98624.31;4482882;32;34938;-82
2021/12/28 07:24:54;;;;;;;87.05;16.92;;;;;;;5.51;55.19;98625.81;4480500;32;34033;-82
2021/12/28 07:27:21;;;;;;;132.52;17.00;;;;;;;5.03;56.80;98626.31;4483110;32;34322;-83
2021/12/28 07:29:48;;;;;;;60.85;14.63;;;;;;;4.45;58.57;98630.75;4482879;32;34058;-83
2021/12/28 07:32:16;;;;;;;64.72;16.25;;;;;;;5.06;57.32;98627.28;4473479;32;33718;-84
2021/12/28 07:34:43;;;;;;;115.22;17.08;;;;;;;4.65;58.26;98618.47;4482999;32;34044;-81
2021/12/28 07:37:11;;;;;;;100.90;16.12;;;;;;;4.80;58.15;98623.16;4482620;32;33426;-83
2021/12/28 07:39:39;;;;;;;109.82;16.80;;;;;;;3.54;61.59;98631.44;4482275;32;33816;-83
2021/12/28 07:42:06;;;;;;;141.62;20.48;;;;;;;4.54;59.54;98627.56;4481596;32;33600;-83
2021/12/28 07:44:35;;;;;;;118.40;19.05;;;;;;;4.94;57.83;98637.22;4482959;32;33946;-82
2021/12/28 07:47:04;;;;;;;83.80;20.23;;;;;;;4.90;57.99;98629.41;4482999;32;34479;-83
2021/12/28 07:49:32;;;;;;;143.18;21.48;;;;;;;4.72;57.75;98629.78;4482998;32;34553;-83
2021/12/28 07:51:59;;;;;;;73.40;18.48;;;;;;;5.63;55.85;98623.53;4482531;32;34226;-83
2021/12/28 07:54:27;;;;;;;113.93;20.10;;;;;;;5.82;55.28;98627.41;4482641;32;33831;-83
2021/12/28 07:56:54;;;;;;;101.50;18.90;;;;;;;5.82;55.03;98633.41;4482475;32;33504;-80
2021/12/28 07:59:22;;;;;;;108.85;18.05;;;;;;;6.20;54.23;98624.84;4480241;32;34727;-80
2021/12/28 08:01:49;;;;;;;124.00;17.75;;;;;;;3.87;60.30;98639.31;4482355;32;34289;-81
2021/12/28 08:04:17;;;;;;;56.03;14.63;;;;;;;4.99;57.81;98639.91;4483116;32;34739;-83
2021/12/28 08:06:46;;;;;;;36.50;13.68;;;;;;;6.10;54.43;98639.22;4482698;32;33252;-81
2021/12/28 08:09:13;;;;;;;23.33;12.05;;;;;;;6.19;54.25;98628.25;4482493;32;33844;-82
2021/12/28 08:11:42;;;;;;;35.40;16.17;;;;;;;5.92;54.88;98623.34;4481717;32;34200;-81
2021/12/28 08:14:09;;;;;;;39.25;23.55;;;;;;;5.41;56.08;98629.84;4481681;32;34100;-83
2021/12/28 08:16:37;;;;;;;50.85;17.10;;;;;;;4.91;57.44;98638.84;4482692;32;33880;-83
2021/12/28 08:19:06;;;;;;;45.28;16.67;;;;;;;6.10;54.35;98621.22;4481879;32;34966;-83
2021/12/28 08:21:44;;;;;;;28.10;13.62;;;;;;;6.52;53.04;98617.78;4481790;32;34942;-82
2021/12/28 08:24:13;;;;;;;44.10;18.75;;;;;;;6.32;53.91;98618.22;4481210;32;34350;-82
2021/12/28 08:26:40;;;;;;;35.70;13.55;;;;;;;6.56;53.16;98606.72;4467068;32;33638;-83
2021/12/28 08:29:07;;;;;;;27.70;12.02;;;;;;;6.36;53.49;98615.72;4467307;32;34024;-83
2021/12/28 08:31:35;;;;;;;26.75;12.80;;;;;;;4.65;57.78;98623.59;4477218;32;33940;-85
2021/12/28 08:34:03;;;;;;;48.17;12.95;;;;;;;4.69;57.96;98622.84;4482463;32;33622;-85
2021/12/28 08:36:31;;;;;;;37.42;12.48;;;;;;;4.31;59.66;98626.91;4482509;32;34175;-84
2021/12/28 08:39:01;;;;;;;46.97;12.65;;;;;;;4.37;60.14;98627.97;4482220;32;33973;-83
2021/12/28 08:41:28;;;;;;;62.92;14.48;;;;;;;4.62;59.17;98631.22;4482269;32;34834;-85
2021/12/28 08:43:55;;;;;;;50.65;15.23;;;;;;;5.46;57.21;98632.56;4482147;32;34038;-82
2021/12/28 08:46:23;;;;;;;58.47;12.95;;;;;;;4.90;57.68;98644.81;4482513;32;33948;-82
2021/12/28 08:48:51;;;;;;;42.90;12.50;;;;;;;5.59;55.98;98644.87;4480965;32;34774;-82
2021/12/28 08:51:18;;;;;;;34.30;11.63;;;;;;;6.10;54.70;98641.81;4482089;32;34617;-83
2021/12/28 08:53:46;;;;;;;31.42;11.90;;;;;;;4.48;58.70;98646.25;4481983;32;33578;-82
2021/12/28 08:56:14;;;;;;;47.92;12.43;;;;;;;4.18;60.41;98648.78;4480901;32;33662;-83
2021/12/28 08:58:41;;;;;;;34.83;14.32;;;;;;;4.09;61.01;98651.06;4482816;32;33961;-83
2021/12/28 09:01:09;;;;;;;34.90;16.08;;;;;;;4.82;58.41;98642.91;4481563;32;34201;-84
2021/12/28 09:03:37;;;;;;;28.70;14.05;;;;;;;4.80;58.93;98638.56;4481142;32;34784;-84
2021/12/28 09:06:05;;;;;;;49.67;17.50;;;;;;;4.89;58.76;98636.25;4481817;32;34419;-83
2021/12/28 09:08:33;;;;;;;47.97;15.95;;;;;;;3.92;61.54;98635.19;4481341;32;33923;-82
2021/12/28 09:11:01;;;;;;;89.60;22.08;;;;;;;4.62;60.03;98626.06;4480560;32;34414;-84
2021/12/28 09:13:28;;;;;;;54.08;20.15;;;;;;;3.70;62.22;98619.97;4482255;32;34461;-82
2021/12/28 09:15:56;;;;;;;77.93;17.70;;;;;;;5.91;56.33;98616.44;4480834;32;33779;-82
2021/12/28 09:18:23;;;;;;;46.88;17.67;;;;;;;5.89;55.50;98620.69;4482589;32;33339;-83
2021/12/28 09:20:51;;;;;;;32.40;15.60;;;;;;;6.54;54.09;98611.81;4481242;32;34261;-84
2021/12/28 09:23:19;;;;;;;37.70;16.00;;;;;;;5.85;55.08;98610.34;4479978;32;34536;-83
2021/12/28 09:26:07;;;;;;;42.62;15.65;;;;;;;6.76;53.45;98602.78;4481415;32;34350;-83
2021/12/28 09:28:34;;;;;;;29.92;15.15;;;;;;;5.30;56.70;98611.63;4482412;32;34902;-82
2021/12/28 09:31:02;;;;;;;38.95;14.15;;;;;;;5.57;56.47;98616.56;4481766;32;34121;-85
2021/12/28 09:33:30;;;;;;;26.77;13.52;;;;;;;6.41;53.92;98619.28;4482514;32;33969;-82
2021/12/28 09:36:00;;;;;;;42.08;14.82;;;;;;;5.74;55.25;98614.37;4482472;32;34595;-84
2021/12/28 09:38:28;;;;;;;34.08;16.75;;;;;;;5.09;57.78;98613.66;4481948;32;33494;-83
2021/12/28 09:40:56;;;;;;;32.55;17.42;;;;;;;5.92;55.89;98618.19;4471098;32;33712;-84
2021/12/28 09:43:24;;;;;;;35.53;17.92;;;;;;;5.10;57.20;98613.66;4475513;32;34463;-85
2021/12/28 09:45:51;;;;;;;40.67;17.42;;;;;;;4.90;58.27;98612.31;4482264;32;33310;-84
2021/12/28 09:48:19;;;;;;;58.97;18.35;;;;;;;5.03;58.64;98621.19;4478856;32;34549;-84
2021/12/28 09:50:47;;;;;;;81.95;20.15;;;;;;;5.80;55.58;98611.94;4479646;32;33993;-84
2021/12/28 09:53:15;;;;;;;45.67;19.25;;;;;;;4.93;62.14;98606.37;4480639;32;33944;-85
2021/12/28 09:55:42;;;;;;;65.05;20.12;;;;;;;5.45;57.23;98610.22;4480409;32;33782;-83
2021/12/28 09:58:10;;;;;;;37.83;16.85;;;;;;;5.25;57.55;98608.06;4480597;32;33937;-85
2021/12/28 10:00:58;;;;;;;34.85;17.25;;;;;;;5.19;57.70;98623.34;4481946;32;33661;-85
2021/12/28 10:03:25;;;;;;;40.97;17.00;;;;;;;5.44;57.39;98609.38;4480468;32;33734;-84
2021/12/28 10:05:53;;;;;;;37.85;18.33;;;;;;;4.44;60.03;98623.03;4480682;32;33811;-84
2021/12/28 10:08:25;;;;;;;44.17;18.55;;;;;;;5.66;57.09;98615.91;4479752;32;34097;-84
2021/12/28 10:10:57;;;;;;;48.50;18.85;;;;;;;5.29;58.21;98617.56;4480429;32;32112;-85
2021/12/28 10:13:30;;;;;;;47.78;21.95;;;;;;;5.72;57.06;98610.91;4481287;32;33689;-84
2021/12/28 10:15:58;;;;;;;52.30;20.02;;;;;;;5.84;56.65;98608.59;4480547;32;33254;-85
2021/12/28 10:18:27;;;;;;;39.40;19.23;;;;;;;4.81;58.59;98607.81;4478002;32;33967;-84
2021/12/28 10:20:58;;;;;;;44.40;19.48;;;;;;;5.24;58.14;98601.19;4468115;32;35190;-83
2021/12/28 10:23:28;;;;;;;35.88;18.52;;;;;;;5.80;57.04;98608.50;4476750;32;33789;-87
2021/12/28 10:26:05;;;;;;;57.92;18.83;;;;;;;5.24;57.75;98598.59;4477763;32;33318;-83
2021/12/28 10:28:35;;;;;;;39.67;18.12;;;;;;;5.10;58.58;98599.97;4465839;32;34642;-84
2021/12/28 10:31:08;;;;;;;35.80;17.48;;;;;;;4.65;60.30;98597.94;4477295;32;34164;-82
2021/12/28 10:33:38;;;;;;;31.77;16.62;;;;;;;5.24;57.97;98596.03;4481616;32;34571;-84
2021/12/28 10:36:08;;;;;;;43.63;17.30;;;;;;;6.32;55.47;98583.91;4483083;32;34610;-83
2021/12/28 10:38:40;;;;;;;38.92;18.48;;;;;;;4.31;60.41;98589.28;4483394;32;34766;-82
2021/12/28 10:41:10;;;;;;;33.67;15.93;;;;;;;4.09;62.09;98595.53;4471772;32;34114;-83
2021/12/28 10:43:43;;;;;;;27.00;16.70;;;;;;;4.44;61.09;98587.09;4471978;32;33669;-82
2021/12/28 10:46:13;;;;;;;30.60;16.33;;;;;;;4.82;59.80;98588.97;4480662;32;33900;-83
2021/12/28 10:48:46;;;;;;;35.13;17.55;;;;;;;5.14;58.99;98588.94;4482199;32;33880;-85
2021/12/28 10:51:29;;;;;;;24.27;13.52;;;;;;;4.97;59.42;98582.50;4481698;31;35085;-85
2021/12/28 10:56:33;;;;;;;25.42;13.43;;;;;;;4.78;59.98;98571.75;4481440;32;33566;-85
2021/12/28 10:59:02;;;;;;;25.77;13.82;;;;;;;4.66;59.54;98576.59;4481997;32;33196;-84
2021/12/28 11:01:32;;;;;;;26.77;14.10;;;;;;;4.30;61.37;98572.16;4481949;32;34122;-85
2021/12/28 11:04:05;;;;;;;24.10;13.25;;;;;;;4.21;60.95;98569.34;4483293;32;34654;-85
2021/12/28 11:06:35;;;;;;;28.65;13.77;;;;;;;4.41;61.55;98571.59;4471484;32;33057;-85
2021/12/28 11:09:26;;;;;;;26.35;14.15;;;;;;;4.31;61.92;98576.47;4478396;32;33512;-83
2021/12/28 11:11:54;;;;;;;24.40;13.85;;;;;;;5.42;58.63;98569.03;4479693;32;35118;-83
2021/12/28 11:14:25;;;;;;;25.58;13.80;;;;;;;4.85;59.84;98571.09;4482237;32;33862;-83
2021/12/28 11:16:58;;;;;;;24.65;13.15;;;;;;;5.22;58.81;98578.84;4478200;32;34247;-84
2021/12/28 11:19:35;;;;;;;27.58;14.10;;;;;;;4.09;61.84;98579.25;4471462;32;33923;-85
2021/12/28 11:22:05;;;;;;;;;;;;;;;5.66;57.37;98558.44;4477181;32;33846;-85
2021/12/28 11:24:34;;;;;;;;;;;;;;;5.62;57.10;98547.22;4474889;32;34062;-85
2021/12/28 11:27:02;;;;;;;;;;;;;;;4.51;60.71;98559.06;4483667;32;32890;-84
2021/12/28 11:29:50;;;;;;;;;;;;;;;5.51;57.90;98544.41;4470605;32;34224;-85
2021/12/28 11:32:19;;;;;;;;;;;;;;;4.71;59.94;98543.31;4471633;32;34430;-85
2021/12/28 11:34:47;;;;;;;;;;;;;;;4.44;61.08;98544.31;4483143;32;34832;-85
2021/12/28 11:37:20;;;;;;;;;;;;;;;3.89;62.83;98550.47;4483515;32;33609;-87
2021/12/28 11:39:49;;;;;;;;;;;;;;;4.80;60.04;98541.84;4480233;32;33850;-86